sensor_id;sensor_type;location;lat;lon;timestamp;temperature;humidity
680;DHT22;322;48.846;9.230;2023-04-10T00:00:51;4.90;80.40
680;DHT22;322;48.846;9.230;2023-04-10T00:03:22;4.90;80.40
680;DHT22;322;48.846;9.230;2023-04-10T00:05:50;4.90;81.00
680;DHT22;322;48.846;9.230;2023-04-10T00:08:19;4.80;81.20
680;DHT22;322;48.846;9.230;2023-04-10T00:10:46;4.80;80.40
680;DHT22;322;48.846;9.230;2023-04-10T00:13:13;4.60;81.10
680;DHT22;322;48.846;9.230;2023-04-10T00:15:40;4.60;81.40
680;DHT22;322;48.846;9.230;2023-04-10T00:18:07;4.50;82.40
680;DHT22;322;48.846;9.230;2023-04-10T00:20:33;4.40;83.70
680;DHT22;322;48.846;9.230;2023-04-10T00:23:02;4.30;84.10
680;DHT22;322;48.846;9.230;2023-04-10T00:25:28;4.30;84.80
680;DHT22;322;48.846;9.230;2023-04-10T00:27:55;4.20;85.30
680;DHT22;322;48.846;9.230;2023-04-10T00:30:22;4.30;84.20
680;DHT22;322;48.846;9.230;2023-04-10T00:32:49;4.30;83.60
680;DHT22;322;48.846;9.230;2023-04-10T00:35:16;4.30;83.70
680;DHT22;322;48.846;9.230;2023-04-10T00:37:42;4.30;83.50
680;DHT22;322;48.846;9.230;2023-04-10T00:40:11;4.30;83.70
680;DHT22;322;48.846;9.230;2023-04-10T00:42:38;4.30;83.00
680;DHT22;322;48.846;9.230;2023-04-10T00:45:06;4.40;82.50
680;DHT22;322;48.846;9.230;2023-04-10T00:47:35;4.40;82.20
680;DHT22;322;48.846;9.230;2023-04-10T00:50:03;4.40;82.90
680;DHT22;322;48.846;9.230;2023-04-10T00:52:31;4.40;82.30
680;DHT22;322;48.846;9.230;2023-04-10T00:54:58;4.30;83.10
680;DHT22;322;48.846;9.230;2023-04-10T00:57:26;4.20;84.20
680;DHT22;322;48.846;9.230;2023-04-10T00:59:53;4.20;85.00
680;DHT22;322;48.846;9.230;2023-04-10T01:02:21;4.20;85.40
680;DHT22;322;48.846;9.230;2023-04-10T01:04:48;4.20;85.00
680;DHT22;322;48.846;9.230;2023-04-10T01:07:19;4.20;85.10
680;DHT22;322;48.846;9.230;2023-04-10T01:09:51;4.10;84.70
680;DHT22;322;48.846;9.230;2023-04-10T01:12:37;4.10;84.90
680;DHT22;322;48.846;9.230;2023-04-10T01:15:11;4.20;84.00
680;DHT22;322;48.846;9.230;2023-04-10T01:17:44;4.20;84.10
680;DHT22;322;48.846;9.230;2023-04-10T01:20:12;4.20;83.20
680;DHT22;322;48.846;9.230;2023-04-10T01:22:48;4.20;83.30
680;DHT22;322;48.846;9.230;2023-04-10T01:25:37;4.00;84.10
680;DHT22;322;48.846;9.230;2023-04-10T01:28:19;4.00;85.10
680;DHT22;322;48.846;9.230;2023-04-10T01:30:52;4.00;85.70
680;DHT22;322;48.846;9.230;2023-04-10T01:33:27;3.90;84.80
680;DHT22;322;48.846;9.230;2023-04-10T01:35:57;3.80;86.20
680;DHT22;322;48.846;9.230;2023-04-10T01:38:28;3.60;85.60
680;DHT22;322;48.846;9.230;2023-04-10T01:40:57;3.60;86.20
680;DHT22;322;48.846;9.230;2023-04-10T01:43:26;3.70;85.80
680;DHT22;322;48.846;9.230;2023-04-10T01:45:56;3.60;87.00
680;DHT22;322;48.846;9.230;2023-04-10T01:48:24;3.60;88.20
680;DHT22;322;48.846;9.230;2023-04-10T01:50:52;3.60;87.90
680;DHT22;322;48.846;9.230;2023-04-10T01:53:21;3.60;87.70
680;DHT22;322;48.846;9.230;2023-04-10T01:55:49;3.60;87.70
680;DHT22;322;48.846;9.230;2023-04-10T01:58:16;3.40;87.70
680;DHT22;322;48.846;9.230;2023-04-10T02:00:43;3.30;87.30
680;DHT22;322;48.846;9.230;2023-04-10T02:03:11;3.40;87.30
680;DHT22;322;48.846;9.230;2023-04-10T02:05:46;3.40;86.90
680;DHT22;322;48.846;9.230;2023-04-10T02:08:19;3.40;87.60
680;DHT22;322;48.846;9.230;2023-04-10T02:10:51;3.30;89.00
680;DHT22;322;48.846;9.230;2023-04-10T02:13:20;3.30;88.70
680;DHT22;322;48.846;9.230;2023-04-10T02:15:49;3.30;87.90
680;DHT22;322;48.846;9.230;2023-04-10T02:18:19;3.30;88.00
680;DHT22;322;48.846;9.230;2023-04-10T02:20:47;3.30;88.50
680;DHT22;322;48.846;9.230;2023-04-10T02:23:14;3.30;88.50
680;DHT22;322;48.846;9.230;2023-04-10T02:25:42;3.30;89.50
680;DHT22;322;48.846;9.230;2023-04-10T02:28:09;3.50;90.00
680;DHT22;322;48.846;9.230;2023-04-10T02:30:36;3.60;87.70
680;DHT22;322;48.846;9.230;2023-04-10T02:33:04;3.50;86.80
680;DHT22;322;48.846;9.230;2023-04-10T02:35:32;3.50;87.30
680;DHT22;322;48.846;9.230;2023-04-10T02:37:59;3.40;86.90
680;DHT22;322;48.846;9.230;2023-04-10T02:40:26;3.50;88.00
680;DHT22;322;48.846;9.230;2023-04-10T02:42:52;3.40;88.20
680;DHT22;322;48.846;9.230;2023-04-10T02:45:19;3.10;87.70
680;DHT22;322;48.846;9.230;2023-04-10T02:47:46;3.00;89.30
680;DHT22;322;48.846;9.230;2023-04-10T02:50:13;2.90;90.20
680;DHT22;322;48.846;9.230;2023-04-10T02:52:43;2.80;90.10
680;DHT22;322;48.846;9.230;2023-04-10T02:55:10;2.80;90.20
680;DHT22;322;48.846;9.230;2023-04-10T02:57:37;2.90;90.00
680;DHT22;322;48.846;9.230;2023-04-10T03:00:04;2.90;90.20
680;DHT22;322;48.846;9.230;2023-04-10T03:02:31;2.90;90.30
680;DHT22;322;48.846;9.230;2023-04-10T03:04:59;2.90;90.30
680;DHT22;322;48.846;9.230;2023-04-10T03:07:26;2.90;90.30
680;DHT22;322;48.846;9.230;2023-04-10T03:09:54;2.90;90.20
680;DHT22;322;48.846;9.230;2023-04-10T03:12:21;3.00;90.60
680;DHT22;322;48.846;9.230;2023-04-10T03:14:48;3.00;90.00
680;DHT22;322;48.846;9.230;2023-04-10T03:17:15;2.90;90.00
680;DHT22;322;48.846;9.230;2023-04-10T03:19:42;2.70;90.10
680;DHT22;322;48.846;9.230;2023-04-10T03:22:08;2.80;90.70
680;DHT22;322;48.846;9.230;2023-04-10T03:24:36;2.80;90.10
680;DHT22;322;48.846;9.230;2023-04-10T03:27:05;2.60;89.30
680;DHT22;322;48.846;9.230;2023-04-10T03:29:32;2.50;90.20
680;DHT22;322;48.846;9.230;2023-04-10T03:31:59;2.50;90.20
680;DHT22;322;48.846;9.230;2023-04-10T03:34:26;2.40;89.60
680;DHT22;322;48.846;9.230;2023-04-10T03:36:52;2.40;89.90
680;DHT22;322;48.846;9.230;2023-04-10T03:39:19;2.40;90.20
680;DHT22;322;48.846;9.230;2023-04-10T03:41:46;2.40;90.60
680;DHT22;322;48.846;9.230;2023-04-10T03:44:15;2.40;91.40
680;DHT22;322;48.846;9.230;2023-04-10T03:46:42;2.50;89.50
680;DHT22;322;48.846;9.230;2023-04-10T03:49:09;2.40;90.10
680;DHT22;322;48.846;9.230;2023-04-10T03:51:36;2.40;90.40
680;DHT22;322;48.846;9.230;2023-04-10T03:54:02;2.40;90.20
680;DHT22;322;48.846;9.230;2023-04-10T03:56:29;2.40;90.10
680;DHT22;322;48.846;9.230;2023-04-10T03:58:56;2.40;90.20
680;DHT22;322;48.846;9.230;2023-04-10T04:01:24;2.40;90.80
680;DHT22;322;48.846;9.230;2023-04-10T04:03:51;2.40;90.90
680;DHT22;322;48.846;9.230;2023-04-10T04:06:18;2.50;90.70
680;DHT22;322;48.846;9.230;2023-04-10T04:08:45;2.40;90.30
680;DHT22;322;48.846;9.230;2023-04-10T04:11:11;2.30;91.10
680;DHT22;322;48.846;9.230;2023-04-10T04:13:38;2.20;91.40
680;DHT22;322;48.846;9.230;2023-04-10T04:16:06;2.10;91.60
680;DHT22;322;48.846;9.230;2023-04-10T04:18:34;2.00;91.30
680;DHT22;322;48.846;9.230;2023-04-10T04:21:01;1.90;91.50
680;DHT22;322;48.846;9.230;2023-04-10T04:23:28;2.00;91.50
680;DHT22;322;48.846;9.230;2023-04-10T04:25:55;2.10;91.20
680;DHT22;322;48.846;9.230;2023-04-10T04:28:23;2.10;91.30
680;DHT22;322;48.846;9.230;2023-04-10T04:30:50;2.00;91.30
680;DHT22;322;48.846;9.230;2023-04-10T04:33:17;2.00;91.50
680;DHT22;322;48.846;9.230;2023-04-10T04:35:45;2.00;91.60
680;DHT22;322;48.846;9.230;2023-04-10T04:38:11;2.00;91.70
680;DHT22;322;48.846;9.230;2023-04-10T04:40:38;2.00;91.90
680;DHT22;322;48.846;9.230;2023-04-10T04:43:05;1.90;91.60
680;DHT22;322;48.846;9.230;2023-04-10T04:45:32;2.00;91.90
680;DHT22;322;48.846;9.230;2023-04-10T04:47:58;2.10;92.00
680;DHT22;322;48.846;9.230;2023-04-10T04:50:25;2.10;92.00
680;DHT22;322;48.846;9.230;2023-04-10T04:52:56;2.20;91.90
680;DHT22;322;48.846;9.230;2023-04-10T04:55:24;2.20;91.70
680;DHT22;322;48.846;9.230;2023-04-10T04:57:51;2.30;91.60
680;DHT22;322;48.846;9.230;2023-04-10T05:00:18;2.40;91.40
680;DHT22;322;48.846;9.230;2023-04-10T05:02:45;2.40;91.50
680;DHT22;322;48.846;9.230;2023-04-10T05:05:12;2.40;91.40
680;DHT22;322;48.846;9.230;2023-04-10T05:07:39;2.50;91.20
680;DHT22;322;48.846;9.230;2023-04-10T05:10:08;2.60;90.90
680;DHT22;322;48.846;9.230;2023-04-10T05:12:35;2.70;90.70
680;DHT22;322;48.846;9.230;2023-04-10T05:15:02;2.80;90.80
680;DHT22;322;48.846;9.230;2023-04-10T05:17:29;2.80;90.80
680;DHT22;322;48.846;9.230;2023-04-10T05:19:56;2.80;90.60
680;DHT22;322;48.846;9.230;2023-04-10T05:22:23;2.90;91.00
680;DHT22;322;48.846;9.230;2023-04-10T05:24:50;3.00;90.80
680;DHT22;322;48.846;9.230;2023-04-10T05:27:19;2.90;90.80
680;DHT22;322;48.846;9.230;2023-04-10T05:29:45;3.00;90.10
680;DHT22;322;48.846;9.230;2023-04-10T05:32:12;3.00;90.30
680;DHT22;322;48.846;9.230;2023-04-10T05:34:39;3.20;90.70
680;DHT22;322;48.846;9.230;2023-04-10T05:37:06;3.20;90.20
680;DHT22;322;48.846;9.230;2023-04-10T05:39:33;3.50;90.40
680;DHT22;322;48.846;9.230;2023-04-10T05:42:00;3.60;90.40
680;DHT22;322;48.846;9.230;2023-04-10T05:44:29;3.70;89.60
680;DHT22;322;48.846;9.230;2023-04-10T05:46:56;3.80;89.00
680;DHT22;322;48.846;9.230;2023-04-10T05:49:23;3.90;88.80
680;DHT22;322;48.846;9.230;2023-04-10T05:51:49;4.00;88.50
680;DHT22;322;48.846;9.230;2023-04-10T05:54:18;4.20;87.90
680;DHT22;322;48.846;9.230;2023-04-10T05:56:45;4.50;86.60
680;DHT22;322;48.846;9.230;2023-04-10T05:59:11;4.50;86.70
680;DHT22;322;48.846;9.230;2023-04-10T06:01:40;4.70;85.70
680;DHT22;322;48.846;9.230;2023-04-10T06:04:07;4.80;84.90
680;DHT22;322;48.846;9.230;2023-04-10T06:06:34;4.90;84.60
680;DHT22;322;48.846;9.230;2023-04-10T06:09:01;5.10;80.90
680;DHT22;322;48.846;9.230;2023-04-10T06:11:28;5.20;79.00
680;DHT22;322;48.846;9.230;2023-04-10T06:13:55;5.30;78.10
680;DHT22;322;48.846;9.230;2023-04-10T06:16:21;5.40;78.00
680;DHT22;322;48.846;9.230;2023-04-10T06:18:50;5.40;79.30
680;DHT22;322;48.846;9.230;2023-04-10T06:21:17;5.50;79.80
680;DHT22;322;48.846;9.230;2023-04-10T06:23:44;5.60;79.50
680;DHT22;322;48.846;9.230;2023-04-10T06:26:10;5.60;79.60
680;DHT22;322;48.846;9.230;2023-04-10T06:28:37;5.70;78.70
680;DHT22;322;48.846;9.230;2023-04-10T06:31:05;5.70;77.70
680;DHT22;322;48.846;9.230;2023-04-10T06:33:32;5.70;76.90
680;DHT22;322;48.846;9.230;2023-04-10T06:36:03;5.80;76.30
680;DHT22;322;48.846;9.230;2023-04-10T06:38:30;5.80;76.20
680;DHT22;322;48.846;9.230;2023-04-10T06:41:02;5.90;75.80
680;DHT22;322;48.846;9.230;2023-04-10T06:43:29;5.90;74.60
680;DHT22;322;48.846;9.230;2023-04-10T06:45:56;6.00;75.80
680;DHT22;322;48.846;9.230;2023-04-10T06:48:23;6.00;76.10
680;DHT22;322;48.846;9.230;2023-04-10T06:50:50;6.00;78.70
680;DHT22;322;48.846;9.230;2023-04-10T06:53:18;5.90;78.30
680;DHT22;322;48.846;9.230;2023-04-10T06:55:44;5.90;77.40
680;DHT22;322;48.846;9.230;2023-04-10T06:58:12;6.00;74.70
680;DHT22;322;48.846;9.230;2023-04-10T07:00:39;6.00;76.20
680;DHT22;322;48.846;9.230;2023-04-10T07:03:05;6.10;75.00
680;DHT22;322;48.846;9.230;2023-04-10T07:05:32;6.20;75.30
680;DHT22;322;48.846;9.230;2023-04-10T07:07:59;6.30;73.80
680;DHT22;322;48.846;9.230;2023-04-10T07:10:27;6.50;72.50
680;DHT22;322;48.846;9.230;2023-04-10T07:12:54;6.70;73.00
680;DHT22;322;48.846;9.230;2023-04-10T07:15:21;6.80;73.20
680;DHT22;322;48.846;9.230;2023-04-10T07:17:48;7.00;73.20
680;DHT22;322;48.846;9.230;2023-04-10T07:20:15;7.20;69.80
680;DHT22;322;48.846;9.230;2023-04-10T07:22:42;7.30;71.00
680;DHT22;322;48.846;9.230;2023-04-10T07:25:09;7.50;69.90
680;DHT22;322;48.846;9.230;2023-04-10T07:27:37;7.60;69.30
680;DHT22;322;48.846;9.230;2023-04-10T07:30:05;7.70;69.70
680;DHT22;322;48.846;9.230;2023-04-10T07:32:32;7.90;67.70
680;DHT22;322;48.846;9.230;2023-04-10T07:34:59;8.00;68.10
680;DHT22;322;48.846;9.230;2023-04-10T07:37:26;8.30;66.70
680;DHT22;322;48.846;9.230;2023-04-10T07:39:53;8.50;65.40
680;DHT22;322;48.846;9.230;2023-04-10T07:42:20;8.50;65.00
680;DHT22;322;48.846;9.230;2023-04-10T07:44:48;8.60;67.70
680;DHT22;322;48.846;9.230;2023-04-10T07:47:15;8.80;63.30
680;DHT22;322;48.846;9.230;2023-04-10T07:49:42;8.90;63.70
680;DHT22;322;48.846;9.230;2023-04-10T07:52:09;9.10;63.50
680;DHT22;322;48.846;9.230;2023-04-10T07:54:36;9.30;60.30
680;DHT22;322;48.846;9.230;2023-04-10T07:57:03;9.60;61.30
680;DHT22;322;48.846;9.230;2023-04-10T07:59:30;9.70;60.60
680;DHT22;322;48.846;9.230;2023-04-10T08:01:58;9.90;60.00
680;DHT22;322;48.846;9.230;2023-04-10T08:04:24;10.00;59.10
680;DHT22;322;48.846;9.230;2023-04-10T08:06:51;10.30;57.70
680;DHT22;322;48.846;9.230;2023-04-10T08:09:18;10.60;57.10
680;DHT22;322;48.846;9.230;2023-04-10T08:11:45;10.70;56.90
680;DHT22;322;48.846;9.230;2023-04-10T08:14:12;11.00;53.80
680;DHT22;322;48.846;9.230;2023-04-10T08:16:39;11.30;55.80
680;DHT22;322;48.846;9.230;2023-04-10T08:19:07;11.50;54.10
680;DHT22;322;48.846;9.230;2023-04-10T08:21:34;11.70;54.00
680;DHT22;322;48.846;9.230;2023-04-10T08:24:02;11.90;50.90
680;DHT22;322;48.846;9.230;2023-04-10T08:26:29;12.10;52.70
680;DHT22;322;48.846;9.230;2023-04-10T08:28:57;12.20;51.90
680;DHT22;322;48.846;9.230;2023-04-10T08:31:25;12.40;50.60
680;DHT22;322;48.846;9.230;2023-04-10T08:33:52;12.50;49.50
680;DHT22;322;48.846;9.230;2023-04-10T08:36:20;12.60;50.60
680;DHT22;322;48.846;9.230;2023-04-10T08:38:47;12.70;50.30
680;DHT22;322;48.846;9.230;2023-04-10T08:41:15;12.80;47.30
680;DHT22;322;48.846;9.230;2023-04-10T08:43:42;13.00;48.20
680;DHT22;322;48.846;9.230;2023-04-10T08:46:10;13.20;49.30
680;DHT22;322;48.846;9.230;2023-04-10T08:48:38;13.40;48.40
680;DHT22;322;48.846;9.230;2023-04-10T08:51:14;13.60;46.80
680;DHT22;322;48.846;9.230;2023-04-10T08:53:45;13.80;48.40
680;DHT22;322;48.846;9.230;2023-04-10T08:56:15;14.00;45.60
680;DHT22;322;48.846;9.230;2023-04-10T08:58:43;14.00;44.40
680;DHT22;322;48.846;9.230;2023-04-10T09:01:10;13.90;44.20
680;DHT22;322;48.846;9.230;2023-04-10T09:03:37;14.00;47.10
680;DHT22;322;48.846;9.230;2023-04-10T09:06:05;14.10;46.10
680;DHT22;322;48.846;9.230;2023-04-10T09:08:32;14.40;45.10
680;DHT22;322;48.846;9.230;2023-04-10T09:11:00;14.70;43.00
680;DHT22;322;48.846;9.230;2023-04-10T09:13:34;14.80;42.50
680;DHT22;322;48.846;9.230;2023-04-10T09:16:02;15.00;43.50
680;DHT22;322;48.846;9.230;2023-04-10T09:18:46;15.20;43.20
680;DHT22;322;48.846;9.230;2023-04-10T09:21:15;15.50;42.20
680;DHT22;322;48.846;9.230;2023-04-10T09:23:43;15.70;41.90
680;DHT22;322;48.846;9.230;2023-04-10T09:26:25;16.10;42.20
680;DHT22;322;48.846;9.230;2023-04-10T09:28:56;16.70;41.90
680;DHT22;322;48.846;9.230;2023-04-10T09:31:27;17.10;39.40
680;DHT22;322;48.846;9.230;2023-04-10T09:34:07;17.50;39.30
680;DHT22;322;48.846;9.230;2023-04-10T09:36:34;17.90;37.70
680;DHT22;322;48.846;9.230;2023-04-10T09:39:02;18.20;35.10
680;DHT22;322;48.846;9.230;2023-04-10T09:41:31;18.50;37.20
680;DHT22;322;48.846;9.230;2023-04-10T09:44:09;18.70;33.10
680;DHT22;322;48.846;9.230;2023-04-10T09:46:36;19.00;33.70
680;DHT22;322;48.846;9.230;2023-04-10T09:49:03;18.60;32.60
680;DHT22;322;48.846;9.230;2023-04-10T09:51:32;18.20;32.80
680;DHT22;322;48.846;9.230;2023-04-10T09:54:00;18.20;34.50
680;DHT22;322;48.846;9.230;2023-04-10T09:56:28;18.50;33.10
680;DHT22;322;48.846;9.230;2023-04-10T09:58:58;18.70;32.90
680;DHT22;322;48.846;9.230;2023-04-10T10:01:26;18.60;33.90
680;DHT22;322;48.846;9.230;2023-04-10T10:03:54;18.70;33.80
680;DHT22;322;48.846;9.230;2023-04-10T10:06:21;19.00;34.60
680;DHT22;322;48.846;9.230;2023-04-10T10:08:49;19.30;33.20
680;DHT22;322;48.846;9.230;2023-04-10T10:11:20;19.40;31.00
680;DHT22;322;48.846;9.230;2023-04-10T10:13:49;19.50;31.20
680;DHT22;322;48.846;9.230;2023-04-10T10:16:23;19.70;30.90
680;DHT22;322;48.846;9.230;2023-04-10T10:18:58;19.90;31.30
680;DHT22;322;48.846;9.230;2023-04-10T10:21:27;20.20;30.50
680;DHT22;322;48.846;9.230;2023-04-10T10:23:57;20.20;30.50
680;DHT22;322;48.846;9.230;2023-04-10T10:26:24;20.30;30.20
680;DHT22;322;48.846;9.230;2023-04-10T10:28:51;20.40;30.10
680;DHT22;322;48.846;9.230;2023-04-10T10:31:24;20.60;31.60
680;DHT22;322;48.846;9.230;2023-04-10T10:33:51;20.80;30.90
680;DHT22;322;48.846;9.230;2023-04-10T10:36:19;21.10;30.60
680;DHT22;322;48.846;9.230;2023-04-10T10:38:54;21.20;29.80
680;DHT22;322;48.846;9.230;2023-04-10T10:41:27;20.90;30.00
680;DHT22;322;48.846;9.230;2023-04-10T10:44:05;20.90;30.00
680;DHT22;322;48.846;9.230;2023-04-10T10:46:39;21.40;29.10
680;DHT22;322;48.846;9.230;2023-04-10T10:49:08;21.60;28.00
680;DHT22;322;48.846;9.230;2023-04-10T10:51:42;22.10;28.70
680;DHT22;322;48.846;9.230;2023-04-10T10:54:27;22.40;29.20
680;DHT22;322;48.846;9.230;2023-04-10T10:56:54;22.00;28.30
680;DHT22;322;48.846;9.230;2023-04-10T10:59:52;21.90;28.90
680;DHT22;322;48.846;9.230;2023-04-10T11:02:20;22.00;29.30
680;DHT22;322;48.846;9.230;2023-04-10T11:04:48;21.90;28.70
680;DHT22;322;48.846;9.230;2023-04-10T11:07:15;22.20;28.10
680;DHT22;322;48.846;9.230;2023-04-10T11:09:47;22.20;28.50
680;DHT22;322;48.846;9.230;2023-04-10T11:12:15;22.10;27.20
680;DHT22;322;48.846;9.230;2023-04-10T11:14:42;22.20;27.50
680;DHT22;322;48.846;9.230;2023-04-10T11:17:10;22.20;28.00
680;DHT22;322;48.846;9.230;2023-04-10T11:19:57;22.50;29.60
680;DHT22;322;48.846;9.230;2023-04-10T11:22:25;22.50;28.50
680;DHT22;322;48.846;9.230;2023-04-10T11:24:57;23.00;28.40
680;DHT22;322;48.846;9.230;2023-04-10T11:27:38;23.50;26.70
680;DHT22;322;48.846;9.230;2023-04-10T11:30:24;24.00;27.90
680;DHT22;322;48.846;9.230;2023-04-10T11:32:51;24.60;25.80
680;DHT22;322;48.846;9.230;2023-04-10T11:35:19;25.20;24.10
680;DHT22;322;48.846;9.230;2023-04-10T11:37:46;25.40;25.80
680;DHT22;322;48.846;9.230;2023-04-10T11:40:13;25.30;25.10
680;DHT22;322;48.846;9.230;2023-04-10T11:42:41;25.70;26.00
680;DHT22;322;48.846;9.230;2023-04-10T11:45:25;26.20;25.10
680;DHT22;322;48.846;9.230;2023-04-10T11:47:52;26.80;24.80
680;DHT22;322;48.846;9.230;2023-04-10T11:50:20;27.40;21.30
680;DHT22;322;48.846;9.230;2023-04-10T11:52:48;27.60;23.80
680;DHT22;322;48.846;9.230;2023-04-10T11:55:15;27.30;21.90
680;DHT22;322;48.846;9.230;2023-04-10T11:57:43;27.20;23.40
680;DHT22;322;48.846;9.230;2023-04-10T12:00:11;27.50;24.30
680;DHT22;322;48.846;9.230;2023-04-10T12:02:49;27.30;23.70
680;DHT22;322;48.846;9.230;2023-04-10T12:05:17;27.20;23.30
680;DHT22;322;48.846;9.230;2023-04-10T12:07:46;27.70;23.10
680;DHT22;322;48.846;9.230;2023-04-10T12:10:14;28.10;22.60
680;DHT22;322;48.846;9.230;2023-04-10T12:12:41;28.00;22.10
680;DHT22;322;48.846;9.230;2023-04-10T12:15:25;28.10;22.40
680;DHT22;322;48.846;9.230;2023-04-10T12:17:51;28.30;21.60
680;DHT22;322;48.846;9.230;2023-04-10T12:20:18;28.40;21.60
680;DHT22;322;48.846;9.230;2023-04-10T12:22:49;28.60;20.90
680;DHT22;322;48.846;9.230;2023-04-10T12:25:20;28.70;20.40
680;DHT22;322;48.846;9.230;2023-04-10T12:27:48;28.70;20.80
680;DHT22;322;48.846;9.230;2023-04-10T12:30:16;29.00;18.70
680;DHT22;322;48.846;9.230;2023-04-10T12:32:50;29.00;18.10
680;DHT22;322;48.846;9.230;2023-04-10T12:35:18;28.70;20.40
680;DHT22;322;48.846;9.230;2023-04-10T12:37:50;29.10;20.00
680;DHT22;322;48.846;9.230;2023-04-10T12:40:19;29.00;20.60
680;DHT22;322;48.846;9.230;2023-04-10T12:42:46;28.80;19.90
680;DHT22;322;48.846;9.230;2023-04-10T12:45:12;29.00;19.90
680;DHT22;322;48.846;9.230;2023-04-10T12:47:44;28.90;17.90
680;DHT22;322;48.846;9.230;2023-04-10T12:50:14;28.60;19.90
680;DHT22;322;48.846;9.230;2023-04-10T12:52:43;28.00;19.30
680;DHT22;322;48.846;9.230;2023-04-10T12:55:13;27.40;20.50
680;DHT22;322;48.846;9.230;2023-04-10T12:57:41;27.30;20.90
680;DHT22;322;48.846;9.230;2023-04-10T13:00:10;26.80;21.80
680;DHT22;322;48.846;9.230;2023-04-10T13:02:37;26.40;22.50
680;DHT22;322;48.846;9.230;2023-04-10T13:05:05;26.20;23.40
680;DHT22;322;48.846;9.230;2023-04-10T13:07:32;25.90;23.30
680;DHT22;322;48.846;9.230;2023-04-10T13:10:00;25.60;22.60
680;DHT22;322;48.846;9.230;2023-04-10T13:12:29;25.30;22.80
680;DHT22;322;48.846;9.230;2023-04-10T13:14:56;25.10;22.60
680;DHT22;322;48.846;9.230;2023-04-10T13:17:24;25.00;24.30
680;DHT22;322;48.846;9.230;2023-04-10T13:19:51;24.90;23.40
680;DHT22;322;48.846;9.230;2023-04-10T13:22:18;24.60;23.10
680;DHT22;322;48.846;9.230;2023-04-10T13:24:45;24.80;24.30
680;DHT22;322;48.846;9.230;2023-04-10T13:27:12;25.10;21.70
680;DHT22;322;48.846;9.230;2023-04-10T13:29:41;25.10;23.10
680;DHT22;322;48.846;9.230;2023-04-10T13:32:08;25.10;22.50
680;DHT22;322;48.846;9.230;2023-04-10T13:34:35;25.40;23.90
680;DHT22;322;48.846;9.230;2023-04-10T13:37:02;26.10;24.00
680;DHT22;322;48.846;9.230;2023-04-10T13:39:29;26.50;23.00
680;DHT22;322;48.846;9.230;2023-04-10T13:41:56;26.60;21.90
680;DHT22;322;48.846;9.230;2023-04-10T13:44:23;26.70;22.10
680;DHT22;322;48.846;9.230;2023-04-10T13:46:51;26.50;22.20
680;DHT22;322;48.846;9.230;2023-04-10T13:49:18;25.90;23.90
680;DHT22;322;48.846;9.230;2023-04-10T13:51:46;25.70;23.80
680;DHT22;322;48.846;9.230;2023-04-10T13:54:13;25.60;23.20
680;DHT22;322;48.846;9.230;2023-04-10T13:56:41;25.50;24.60
680;DHT22;322;48.846;9.230;2023-04-10T13:59:08;25.30;24.30
680;DHT22;322;48.846;9.230;2023-04-10T14:01:35;25.00;23.40
680;DHT22;322;48.846;9.230;2023-04-10T14:04:03;25.00;24.70
680;DHT22;322;48.846;9.230;2023-04-10T14:06:30;24.50;24.20
680;DHT22;322;48.846;9.230;2023-04-10T14:08:57;24.50;24.90
680;DHT22;322;48.846;9.230;2023-04-10T14:11:24;24.40;23.50
680;DHT22;322;48.846;9.230;2023-04-10T14:13:51;24.10;24.50
680;DHT22;322;48.846;9.230;2023-04-10T14:16:18;24.20;25.10
680;DHT22;322;48.846;9.230;2023-04-10T14:18:45;24.20;24.70
680;DHT22;322;48.846;9.230;2023-04-10T14:21:13;24.40;23.90
680;DHT22;322;48.846;9.230;2023-04-10T14:23:40;24.60;23.40
680;DHT22;322;48.846;9.230;2023-04-10T14:26:07;24.50;24.30
680;DHT22;322;48.846;9.230;2023-04-10T14:28:34;24.50;24.20
680;DHT22;322;48.846;9.230;2023-04-10T14:31:01;24.60;23.70
680;DHT22;322;48.846;9.230;2023-04-10T14:33:28;25.10;22.60
680;DHT22;322;48.846;9.230;2023-04-10T14:35:55;25.20;23.80
680;DHT22;322;48.846;9.230;2023-04-10T14:38:23;25.10;23.20
680;DHT22;322;48.846;9.230;2023-04-10T14:40:49;24.80;23.20
680;DHT22;322;48.846;9.230;2023-04-10T14:43:18;24.50;24.10
680;DHT22;322;48.846;9.230;2023-04-10T14:45:45;24.40;25.70
680;DHT22;322;48.846;9.230;2023-04-10T14:48:12;24.30;24.90
680;DHT22;322;48.846;9.230;2023-04-10T14:50:39;24.00;25.70
680;DHT22;322;48.846;9.230;2023-04-10T14:53:05;24.00;25.30
680;DHT22;322;48.846;9.230;2023-04-10T14:55:35;24.20;24.60
680;DHT22;322;48.846;9.230;2023-04-10T14:58:02;24.40;23.40
680;DHT22;322;48.846;9.230;2023-04-10T15:00:31;24.30;24.60
680;DHT22;322;48.846;9.230;2023-04-10T15:02:58;24.30;25.20
680;DHT22;322;48.846;9.230;2023-04-10T15:05:26;24.40;23.80
680;DHT22;322;48.846;9.230;2023-04-10T15:07:52;24.70;25.50
680;DHT22;322;48.846;9.230;2023-04-10T15:10:19;24.70;25.00
680;DHT22;322;48.846;9.230;2023-04-10T15:12:48;24.60;24.80
680;DHT22;322;48.846;9.230;2023-04-10T15:15:16;24.50;24.60
680;DHT22;322;48.846;9.230;2023-04-10T15:17:43;24.20;25.10
680;DHT22;322;48.846;9.230;2023-04-10T15:20:10;24.20;25.20
680;DHT22;322;48.846;9.230;2023-04-10T15:22:37;24.30;24.20
680;DHT22;322;48.846;9.230;2023-04-10T15:25:07;24.40;25.90
680;DHT22;322;48.846;9.230;2023-04-10T15:27:36;24.50;24.60
680;DHT22;322;48.846;9.230;2023-04-10T15:30:06;24.20;24.50
680;DHT22;322;48.846;9.230;2023-04-10T15:32:32;23.80;24.30
680;DHT22;322;48.846;9.230;2023-04-10T15:35:02;23.30;25.00
680;DHT22;322;48.846;9.230;2023-04-10T15:37:29;22.80;24.40
680;DHT22;322;48.846;9.230;2023-04-10T15:39:55;22.50;26.00
680;DHT22;322;48.846;9.230;2023-04-10T15:42:22;22.30;25.60
680;DHT22;322;48.846;9.230;2023-04-10T15:44:49;22.30;26.80
680;DHT22;322;48.846;9.230;2023-04-10T15:47:17;22.00;26.50
680;DHT22;322;48.846;9.230;2023-04-10T15:49:44;21.90;27.10
680;DHT22;322;48.846;9.230;2023-04-10T15:52:11;21.60;27.10
680;DHT22;322;48.846;9.230;2023-04-10T15:54:38;21.40;27.30
680;DHT22;322;48.846;9.230;2023-04-10T15:57:05;21.10;27.80
680;DHT22;322;48.846;9.230;2023-04-10T15:59:32;20.90;28.60
680;DHT22;322;48.846;9.230;2023-04-10T16:02:00;20.50;27.70
680;DHT22;322;48.846;9.230;2023-04-10T16:04:29;20.10;28.40
680;DHT22;322;48.846;9.230;2023-04-10T16:06:55;19.90;28.70
680;DHT22;322;48.846;9.230;2023-04-10T16:09:23;19.90;29.20
680;DHT22;322;48.846;9.230;2023-04-10T16:11:50;19.70;30.20
680;DHT22;322;48.846;9.230;2023-04-10T16:14:16;19.70;29.70
680;DHT22;322;48.846;9.230;2023-04-10T16:16:43;19.50;29.00
680;DHT22;322;48.846;9.230;2023-04-10T16:19:10;19.40;31.50
680;DHT22;322;48.846;9.230;2023-04-10T16:21:38;19.30;30.60
680;DHT22;322;48.846;9.230;2023-04-10T16:24:05;19.20;30.80
680;DHT22;322;48.846;9.230;2023-04-10T16:26:32;19.10;31.00
680;DHT22;322;48.846;9.230;2023-04-10T16:28:59;19.00;30.90
680;DHT22;322;48.846;9.230;2023-04-10T16:31:26;18.90;32.20
680;DHT22;322;48.846;9.230;2023-04-10T16:33:53;18.80;31.50
680;DHT22;322;48.846;9.230;2023-04-10T16:36:20;18.80;32.40
680;DHT22;322;48.846;9.230;2023-04-10T16:38:49;18.70;32.60
680;DHT22;322;48.846;9.230;2023-04-10T16:41:16;18.70;32.30
680;DHT22;322;48.846;9.230;2023-04-10T16:43:45;18.70;31.90
680;DHT22;322;48.846;9.230;2023-04-10T16:46:11;18.70;32.50
680;DHT22;322;48.846;9.230;2023-04-10T16:48:38;18.60;32.50